Weather History for KAXA - October, 2010

Change the Weather History Date:

Tuesday, October 26, 2010

  Actual Average Record
Temperature  
Mean Temperature 52 °F -  
Max Temperature 62 °F 53 °F 73 °F (1996)
Min Temperature 41 °F 35 °F 26 °F (2001)
Degree Days  
Heating Degree Days 14    
Growing Degree Days 2 (Base 50)    
Moisture  
Dew Point 42 °F    
Average Humidity 82    
Maximum Humidity 100    
Minimum Humidity 57    
Precipitation  
Precipitation 0.10 in - - ()
Sea Level Pressure  
Sea Level Pressure 28.99 in    
Wind  
Wind Speed 25 mph (West)    
Max Wind Speed 43 mph    
Max Gust Speed 52 mph    
Visibility 9 miles    
Events Rain    
Averages and records for this station are not official NWS values.
T = Trace of Precipitation, MM = Missing Value Source: NWS Daily Summary

Daily Weather History Graph

Daily Weather History Graph

Search for Another Location

Airport or City:

Trip Planner

Search our weather history database for the weather conditions in past years. The results will help you decide how hot, cold, wet, or windy it might be!

Date:

Astronomy

Oct. 26, 2010 Rise Set
Actual Time 7:44 AM CDT 6:17 PM CDT
Civil Twilight 7:14 AM CDT 6:46 PM CDT
Nautical Twilight 6:41 AM CDT 7:19 PM CDT
Astronomical Twilight 6:08 AM CDT 7:52 PM CDT
Moon 8:33 PM CDT (10/26) 11:32 AM CDT (10/26)
Length of Visible Light 11h 31m
Length of Day
10h 33m
Waning Gibbous, 87% of the Moon is Illuminated
Oct 26
Waning Gibbous
Oct 30
Last Quarter
Nov 5
New
Nov 13
First Quarter
Nov 21
Full

Hourly Weather History & Observations

Time (CDT) Temp. Windchill Dew Point Humidity Pressure Visibility Wind Dir Wind Speed Gust Speed Precip Events Conditions
12:15 AM 62.6 °F - 57.2 °F 82% 28.85 in 10.0 mi South 16.1 mph - N/A   Overcast
12:35 AM 62.6 °F - 57.2 °F 82% 28.85 in 10.0 mi WSW 16.1 mph 23.0 mph N/A   Overcast
12:55 AM 57.2 °F - 55.4 °F 94% 28.85 in 10.0 mi West 18.4 mph - N/A   Overcast
1:15 AM 55.4 °F - 53.6 °F 94% 28.85 in 10.0 mi West 21.9 mph 27.6 mph N/A   Light Drizzle
1:35 AM 53.6 °F - 51.8 °F 94% 28.82 in 10.0 mi West 16.1 mph - N/A   Overcast
1:55 AM 53.6 °F - 51.8 °F 94% 28.83 in 10.0 mi West 16.1 mph 20.7 mph N/A   Overcast
2:15 AM 53.6 °F - 51.8 °F 94% 28.85 in 10.0 mi West 20.7 mph 26.5 mph N/A   Overcast
2:35 AM 53.6 °F - 51.8 °F 94% 28.86 in 10.0 mi West 20.7 mph 26.5 mph N/A   Overcast
2:55 AM 51.8 °F - 50.0 °F 94% 28.86 in 10.0 mi West 20.7 mph 25.3 mph N/A   Overcast
3:15 AM 51.8 °F - 50.0 °F 94% 28.87 in 10.0 mi WSW 23.0 mph - N/A   Overcast
3:35 AM 51.8 °F - 50.0 °F 94% 28.87 in 5.0 mi WSW 17.3 mph - N/A   Overcast
3:55 AM 51.8 °F - 50.0 °F 94% 28.87 in 7.0 mi WSW 17.3 mph - N/A   Overcast
4:15 AM 51.8 °F - 50.0 °F 94% 28.85 in 7.0 mi WSW 19.6 mph 26.5 mph N/A   Overcast
4:35 AM 50.0 °F - 50.0 °F 100% 28.85 in 3.0 mi WSW 19.6 mph 26.5 mph N/A   Heavy Drizzle
4:55 AM 50.0 °F - 50.0 °F 100% 28.83 in 5.0 mi WSW 23.0 mph 27.6 mph 0.01 in   Drizzle
5:15 AM 50.0 °F - 50.0 °F 100% 28.82 in 3.0 mi WSW 19.6 mph - N/A   Drizzle
5:35 AM 50.0 °F - 50.0 °F 100% 28.83 in 3.0 mi West 18.4 mph 23.0 mph 0.01 in   Heavy Drizzle
5:55 AM 50.0 °F - 50.0 °F 100% 28.83 in 5.0 mi West 25.3 mph 31.1 mph 0.02 in Rain Light Rain
6:15 AM 50.0 °F - 46.4 °F 87% 28.83 in 10.0 mi West 25.3 mph 31.1 mph N/A   Drizzle
6:35 AM 50.0 °F - 46.4 °F 87% 28.83 in 10.0 mi West 27.6 mph 33.4 mph N/A   Drizzle
7:15 AM 46.4 °F 36.5 °F 44.6 °F 93% 28.86 in 10.0 mi West 34.5 mph 44.9 mph N/A   Light Drizzle
7:35 AM 46.4 °F 36.5 °F 42.8 °F 87% 28.87 in 10.0 mi WNW 34.5 mph 42.6 mph N/A   Overcast
7:55 AM 42.8 °F 31.9 °F 42.8 °F 100% 28.88 in 7.0 mi West 32.2 mph 41.4 mph 0.01 in Rain Light Rain
8:15 AM 42.8 °F 31.4 °F 41.0 °F 93% 28.89 in 7.0 mi West 35.7 mph 48.3 mph 0.02 in Rain Rain
8:35 AM 42.8 °F 32.7 °F 41.0 °F 93% 28.90 in 10.0 mi West 27.6 mph 41.4 mph 0.03 in Rain Rain
8:55 AM 42.8 °F 32.1 °F 41.0 °F 93% 28.91 in 7.0 mi West 31.1 mph 43.7 mph 0.03 in Rain Light Rain
9:15 AM 42.8 °F 32.5 °F 41.0 °F 93% 28.92 in 7.0 mi West 28.8 mph 38.0 mph N/A Rain Light Rain
9:35 AM 42.8 °F 32.5 °F 41.0 °F 93% 28.93 in 10.0 mi West 28.8 mph 36.8 mph 0.01 in Rain Light Rain
9:55 AM 42.8 °F 31.9 °F 41.0 °F 93% 28.94 in 7.0 mi West 32.2 mph 43.7 mph 0.01 in Rain Rain
10:15 AM 42.8 °F 31.6 °F 41.0 °F 93% 28.95 in 7.0 mi West 34.5 mph 43.7 mph N/A   Drizzle
10:35 AM 41.0 °F 28.0 °F 41.0 °F 100% 28.96 in 7.0 mi West 42.6 mph 50.6 mph 0.01 in   Drizzle
10:55 AM 41.0 °F 29.5 °F 41.0 °F 100% 28.97 in 5.0 mi West 32.2 mph 41.4 mph 0.02 in   Drizzle
11:15 AM 41.0 °F 29.5 °F 41.0 °F 100% 28.98 in 10.0 mi West 32.2 mph 41.4 mph N/A   Drizzle
11:35 AM 42.8 °F 31.0 °F 41.0 °F 93% 28.98 in 10.0 mi West 39.1 mph 43.7 mph N/A   Light Drizzle
11:55 AM 42.8 °F 32.3 °F 41.0 °F 93% 28.99 in 10.0 mi West 29.9 mph 39.1 mph N/A   Overcast
12:15 PM 44.6 °F 34.1 °F 39.2 °F 81% 29.00 in 10.0 mi West 34.5 mph 46.0 mph N/A   Overcast
12:35 PM 44.6 °F 34.1 °F 37.4 °F 76% 29.01 in 10.0 mi West 34.5 mph 43.7 mph N/A   Overcast
12:55 PM 46.4 °F 36.9 °F 39.2 °F 76% 29.01 in 10.0 mi West 32.2 mph 42.6 mph N/A   Overcast
1:15 PM 46.4 °F 36.7 °F 39.2 °F 76% 29.01 in 10.0 mi West 33.4 mph 50.6 mph N/A   Overcast
1:35 PM 48.2 °F - 41.0 °F 76% 29.02 in 10.0 mi West 33.4 mph 46.0 mph N/A   Overcast
1:55 PM 48.2 °F - 39.2 °F 71% 29.03 in 10.0 mi West 34.5 mph 51.8 mph N/A   Overcast
2:15 PM 48.2 °F - 39.2 °F 71% 29.04 in 10.0 mi West 34.5 mph 41.4 mph N/A   Overcast
2:35 PM 46.4 °F 36.4 °F 37.4 °F 71% 29.06 in 10.0 mi West 35.7 mph 47.2 mph N/A   Overcast
2:55 PM 46.4 °F 36.3 °F 37.4 °F 71% 29.07 in 10.0 mi West 36.8 mph 46.0 mph N/A   Overcast
3:15 PM 46.4 °F 36.9 °F 37.4 °F 71% 29.08 in 10.0 mi West 32.2 mph 46.0 mph N/A   Overcast
3:35 PM 48.2 °F - 37.4 °F 66% 29.09 in 10.0 mi West 29.9 mph 41.4 mph N/A   Overcast
3:55 PM 48.2 °F - 37.4 °F 66% 29.10 in 10.0 mi WSW 28.8 mph 39.1 mph N/A   Overcast
4:15 PM 50.0 °F - 37.4 °F 62% 29.10 in 10.0 mi WSW 33.4 mph 44.9 mph N/A   Overcast
4:35 PM 50.0 °F - 37.4 °F 62% 29.11 in 10.0 mi West 35.7 mph 43.7 mph N/A   Overcast
4:55 PM 50.0 °F - 37.4 °F 62% 29.12 in 10.0 mi West 31.1 mph 39.1 mph N/A   Overcast
5:15 PM 50.0 °F - 35.6 °F 58% 29.13 in 10.0 mi West 33.4 mph 41.4 mph N/A   Overcast
5:35 PM 50.0 °F - 37.4 °F 62% 29.14 in 10.0 mi WSW 31.1 mph 40.3 mph N/A   Overcast
5:55 PM 48.2 °F - 35.6 °F 62% 29.14 in 10.0 mi West 25.3 mph 41.4 mph N/A   Mostly Cloudy
6:15 PM 48.2 °F - 35.6 °F 62% 29.16 in 10.0 mi West 35.7 mph 43.7 mph N/A   Mostly Cloudy
6:35 PM 46.4 °F 36.7 °F 35.6 °F 66% 29.17 in 10.0 mi West 33.4 mph 40.3 mph N/A   Mostly Cloudy
6:55 PM 46.4 °F 38.3 °F 35.6 °F 66% 29.17 in 10.0 mi WSW 23.0 mph 36.8 mph N/A   Scattered Clouds
7:15 PM 46.4 °F 38.7 °F 35.6 °F 66% 29.18 in 10.0 mi WSW 20.7 mph - N/A   Clear
7:35 PM 46.4 °F 37.9 °F 35.6 °F 66% 29.19 in 10.0 mi WSW 25.3 mph 29.9 mph N/A   Clear
7:55 PM 46.4 °F 37.5 °F 35.6 °F 66% 29.21 in 10.0 mi West 27.6 mph 38.0 mph N/A   Clear
8:15 PM 46.4 °F 38.7 °F 35.6 °F 66% 29.21 in 10.0 mi West 20.7 mph 31.1 mph N/A   Scattered Clouds
8:35 PM 46.4 °F 37.5 °F 33.8 °F 62% 29.22 in 10.0 mi West 27.6 mph 33.4 mph N/A   Scattered Clouds
8:55 PM 46.4 °F 37.9 °F 33.8 °F 62% 29.22 in 10.0 mi WSW 25.3 mph 32.2 mph N/A   Clear
9:15 PM 46.4 °F 37.2 °F 33.8 °F 62% 29.23 in 10.0 mi WSW 29.9 mph 38.0 mph N/A   Clear
9:35 PM 46.4 °F 36.3 °F 32.0 °F 57% 29.23 in 10.0 mi West 36.8 mph 50.6 mph N/A   Clear
9:55 PM 46.4 °F 37.0 °F 32.0 °F 57% 29.24 in 10.0 mi West 31.1 mph 46.0 mph N/A   Scattered Clouds
10:15 PM 46.4 °F 37.0 °F 33.8 °F 62% 29.24 in 10.0 mi West 31.1 mph 36.8 mph N/A   Overcast
10:35 PM 46.4 °F 37.0 °F 32.0 °F 57% 29.24 in 10.0 mi West 31.1 mph 43.7 mph N/A   Mostly Cloudy
10:55 PM 44.6 °F 33.9 °F 32.0 °F 61% 29.25 in 10.0 mi West 35.7 mph 52.9 mph N/A   Clear
11:15 PM 44.6 °F 33.9 °F 32.0 °F 61% 29.25 in 10.0 mi West 35.7 mph 47.2 mph N/A   Clear
11:35 PM 44.6 °F 35.3 °F 32.0 °F 61% 29.25 in 10.0 mi WSW 26.5 mph 39.1 mph N/A   Clear
11:55 PM 44.6 °F 34.4 °F 32.0 °F 61% 29.25 in 10.0 mi West 32.2 mph 42.6 mph N/A   Clear